| Date | Time | Temp. (oF) | Dew Point (oF) | Rel. Hum. (%) | Press. (in.) | Wind Dir. (deg.) | Wind Speed (mph) | Hourly Rainfall (i n.) |
|
|---|---|---|---|---|---|---|---|---|---|
| 1 | 07/26 | 24:00 | 73 | 67 | 83 | 30.08 | 10 | 0 | 0.00 |
| 2 | 07/25 | 23:00 | 74 | 65 | 75 | 30.07 | 10 | 0 | 0.00 |
| 3 | 07/25 | 22:00 | 74 | 67 | 79 | 30.05 | 10 | 0 | 0.00 |
| 4 | 07/25 | 21:00 | 75 | 67 | 77 | 30.04 | 10 | 0 | 0.00 |
| 5 | 07/25 | 20:00 | 77 | 67 | 72 | 29.99 | 10 | 1 | 0.01 |
| 6 | 07/25 | 19:00 | 87 | 59 | 40 | 29.97 | 310 | 0 | 0.00 |
| 7 | 07/25 | 18:00 | 89 | 59 | 37 | 29.98 | 270 | 4 | 0.00 |
| 8 | 07/25 | 17:00 | 89 | 59 | 37 | 29.99 | 270 | 12 | 0.00 |
| 9 | 07/25 | 16:00 | 90 | 59 | 36 | 29.98 | 270 | 10 | 0.00 |
| 10 | 07/25 | 15:00 | 90 | 57 | 34 | 29.98 | 290 | 7 | 0.00 |
| 11 | 07/25 | 14:00 | 90 | 55 | 32 | 30.00 | 270 | 10 | 0.00 |
| 12 | 07/25 | 13:00 | 89 | 59 | 38 | 30.03 | 330 | 7 | 0.00 |
| 13 | 07/25 | 12:00 | 87 | 62 | 45 | 30.06 | 290 | 4 | 0.00 |
| 14 | 07/25 | 11:00 | 83 | 65 | 55 | 30.12 | 290 | 6 | 0.00 |
| 15 | 07/25 | 10:00 | 79 | 64 | 62 | 30.10 | 330 | 7 | 0.00 |
| 16 | 07/25 | 09:00 | 76 | 65 | 70 | 30.09 | 330 | 6 | 0.00 |
| 17 | 07/25 | 08:00 | 74 | 67 | 79 | 30.09 | 330 | 1 | 0.00 |
| 18 | 07/25 | 07:00 | 73 | 66 | 80 | 30.08 | 270 | 1 | 0.00 |
| 19 | 07/25 | 06:00 | 73 | 65 | 78 | 30.05 | 270 | 1 | 0.00 |
| 20 | 07/25 | 05:00 | 73 | 65 | 77 | 30.04 | 270 | 1 | 0.00 |
| 21 | 07/25 | 04:00 | 74 | 65 | 76 | 30.03 | 270 | 2 | 0.00 |
| 22 | 07/25 | 03:00 | 75 | 65 | 73 | 30.03 | 270 | 1 | 0.00 |
| 23 | 07/25 | 02:00 | 77 | 65 | 68 | 30.02 | 270 | 6 | 0.00 |
| 24 | 07/25 | 01:00 | 78 | 66 | 67 | 30.02 | 270 | 6 | 0.00 |